Windsor, Wisconsin
Current Conditions -  °F | °C
As of 3:53 AM on Saturday 22 Nov 2014 (Local Time) from KMSN Reporting Station
Overcast Overcast  
Wind Chill: 23°   Ceiling: 900
Heat Index: 32°   Visibility: 7mi
Dew Point: 29°   Wind: 12mph
Humidity: 88%   Direction: 200°SSW
Pressure: 29.99"   Gusts: NA
Location:  43.22°N, 89.34°W
Report Text: KMSN 220953Z AUTO 20010KT 7SM OVC009 00/M02 A2999 RMK AO2 SLP165 T00001017
Loading
Personal Weather Stations






























Interactive Weather Map New forecast layout! Learn more

10-Day Weather Forecast

Advertisements
Track Severe Weather on mobile